createdAt,value
2017-10-06T00:00:48.225Z,69.30
2017-10-06T00:03:14.881Z,69.50
2017-10-06T00:05:41.530Z,69.50
2017-10-06T00:08:08.202Z,69.40
2017-10-06T00:10:34.854Z,69.40
2017-10-06T00:13:01.526Z,69.30
2017-10-06T00:15:28.578Z,69.50
2017-10-06T00:17:55.653Z,69.40
2017-10-06T00:23:12.264Z,69.10
2017-10-06T00:25:38.910Z,69.40
2017-10-06T00:28:05.592Z,69.40
2017-10-06T00:30:32.262Z,69.30
2017-10-06T00:32:58.911Z,69.20
2017-10-06T00:35:25.984Z,69.20
2017-10-06T00:37:52.638Z,69.20
2017-10-06T00:40:19.338Z,69.20
2017-10-06T00:42:45.997Z,69.10
2017-10-06T00:45:13.067Z,69.30
2017-10-06T00:47:39.734Z,69.20
2017-10-06T00:50:06.407Z,69.20
2017-10-06T00:52:33.056Z,69.20
2017-10-06T00:55:00.131Z,69.10
2017-10-06T00:57:26.779Z,69.10
2017-10-06T00:59:53.427Z,69.10
2017-10-06T01:02:20.871Z,68.90
2017-10-06T01:04:48.278Z,68.90
2017-10-06T01:07:14.969Z,69.00
2017-10-06T01:09:41.614Z,69.00
2017-10-06T01:12:08.286Z,68.90
2017-10-06T01:14:34.934Z,69.10
2017-10-06T01:17:02.007Z,69.00
2017-10-06T01:19:28.659Z,69.00
2017-10-06T01:21:55.324Z,69.00
2017-10-06T01:24:22.407Z,69.10
2017-10-06T01:26:49.110Z,69.10
2017-10-06T01:29:15.808Z,69.20
2017-10-06T01:31:42.464Z,69.10
2017-10-06T01:34:09.919Z,69.10
2017-10-06T01:36:36.570Z,69.00
2017-10-06T01:39:03.234Z,69.10
2017-10-06T01:41:29.905Z,69.00
2017-10-06T01:43:56.554Z,69.00
2017-10-06T01:46:23.254Z,69.00
2017-10-06T01:48:51.061Z,69.00
2017-10-06T01:51:25.050Z,69.00
2017-10-06T01:53:53.219Z,69.00
2017-10-06T01:56:20.289Z,68.90
2017-10-06T01:58:46.965Z,69.00
2017-10-06T02:01:13.600Z,69.00
2017-10-06T02:03:40.724Z,69.00
2017-10-06T02:06:07.376Z,69.00
2017-10-06T02:08:34.045Z,69.00
2017-10-06T02:11:01.844Z,69.00
2017-10-06T02:13:28.508Z,69.00
2017-10-06T02:15:55.140Z,69.00
2017-10-06T02:18:21.777Z,69.00
2017-10-06T02:23:37.893Z,69.00
2017-10-06T02:26:04.933Z,69.00
2017-10-06T02:28:32.131Z,69.00
2017-10-06T02:30:59.557Z,69.00
2017-10-06T02:33:26.208Z,69.10
2017-10-06T02:35:52.869Z,69.00
2017-10-06T02:38:19.520Z,69.00
2017-10-06T02:40:46.183Z,69.00
2017-10-06T02:43:12.829Z,69.00
2017-10-06T02:45:39.472Z,69.00
2017-10-06T02:48:06.139Z,69.00
2017-10-06T02:50:32.811Z,69.00
2017-10-06T02:52:59.949Z,68.80
2017-10-06T02:55:26.597Z,69.00
2017-10-06T02:57:53.268Z,69.00
2017-10-06T03:00:20.301Z,69.00
2017-10-06T03:02:47.349Z,69.00
2017-10-06T03:05:14.005Z,68.90
2017-10-06T03:07:41.033Z,69.00
2017-10-06T03:10:07.693Z,68.90
2017-10-06T03:12:35.103Z,69.00
2017-10-06T03:15:01.760Z,69.00
2017-10-06T03:17:28.413Z,68.90
2017-10-06T03:19:55.068Z,68.90
2017-10-06T03:22:21.706Z,68.90
2017-10-06T03:24:48.752Z,68.90
2017-10-06T03:27:16.193Z,69.00
2017-10-06T03:29:43.215Z,69.00
2017-10-06T03:32:09.884Z,69.00
2017-10-06T03:34:36.524Z,69.00
2017-10-06T03:37:03.199Z,68.90
2017-10-06T03:39:29.842Z,68.90
2017-10-06T03:41:56.530Z,68.80
2017-10-06T03:44:23.179Z,69.00
2017-10-06T03:46:50.209Z,68.90
2017-10-06T03:49:16.872Z,68.90
2017-10-06T03:51:43.508Z,68.90
2017-10-06T03:54:10.192Z,68.90
2017-10-06T03:56:36.828Z,68.90
2017-10-06T03:59:03.485Z,68.90
2017-10-06T04:01:30.121Z,69.00
2017-10-06T04:03:57.260Z,68.80
2017-10-06T04:06:23.901Z,68.80
2017-10-06T04:08:50.554Z,68.80
2017-10-06T04:11:17.213Z,68.80
2017-10-06T04:13:44.255Z,68.90
2017-10-06T04:16:10.916Z,68.90
2017-10-06T04:18:37.544Z,68.90
2017-10-06T04:21:04.219Z,68.90
2017-10-06T04:23:30.856Z,68.90
2017-10-06T04:25:57.706Z,68.90
2017-10-06T04:28:24.367Z,68.90
2017-10-06T04:30:51.397Z,68.90
2017-10-06T04:33:18.067Z,68.90
2017-10-06T04:35:45.472Z,68.90
2017-10-06T04:38:12.134Z,68.80
2017-10-06T04:40:38.773Z,68.90
2017-10-06T04:43:05.456Z,68.90
2017-10-06T04:45:32.089Z,68.80
2017-10-06T04:47:58.722Z,68.80
2017-10-06T04:50:25.380Z,68.80
2017-10-06T04:52:52.432Z,68.90
2017-10-06T04:55:19.105Z,68.70
2017-10-06T04:57:46.285Z,68.80
2017-10-06T05:00:12.945Z,68.80
2017-10-06T05:02:39.977Z,68.90
2017-10-06T05:05:07.424Z,68.70
2017-10-06T05:07:34.061Z,68.90
2017-10-06T05:10:00.701Z,68.80
2017-10-06T05:12:27.772Z,68.80
2017-10-06T05:14:54.806Z,68.80
2017-10-06T05:17:21.862Z,68.80
2017-10-06T05:19:49.660Z,68.80
2017-10-06T05:22:16.328Z,68.80
2017-10-06T05:24:42.965Z,68.70
2017-10-06T05:27:09.639Z,68.80
2017-10-06T05:29:36.280Z,68.70
2017-10-06T05:32:02.962Z,68.80
2017-10-06T05:34:29.599Z,68.70
2017-10-06T05:36:56.236Z,68.80
2017-10-06T05:39:23.292Z,68.80
2017-10-06T05:41:49.932Z,68.70
2017-10-06T05:44:16.596Z,68.80
2017-10-06T05:46:43.231Z,68.60
2017-10-06T05:49:09.958Z,68.80
2017-10-06T05:51:36.621Z,68.70
2017-10-06T05:54:03.288Z,68.70
2017-10-06T05:56:29.935Z,68.80
2017-10-06T05:58:56.601Z,68.90
2017-10-06T06:01:23.627Z,68.90
2017-10-06T06:03:50.266Z,68.80
2017-10-06T06:06:16.920Z,68.90
2017-10-06T06:08:43.952Z,68.90
2017-10-06T06:11:10.625Z,68.80
2017-10-06T06:13:37.259Z,68.90
2017-10-06T06:16:04.328Z,68.90
2017-10-06T06:18:30.959Z,68.90
2017-10-06T06:23:48.538Z,68.70
2017-10-06T06:26:15.195Z,68.90
2017-10-06T06:28:41.828Z,68.80
2017-10-06T06:31:08.501Z,68.90
2017-10-06T06:33:35.128Z,68.80
2017-10-06T06:36:01.822Z,68.80
2017-10-06T06:38:28.482Z,68.80
2017-10-06T06:40:55.116Z,68.80
2017-10-06T06:43:21.793Z,69.00
2017-10-06T06:45:48.420Z,68.90
2017-10-06T06:48:15.084Z,68.90
2017-10-06T06:50:41.721Z,68.90
2017-10-06T06:53:08.396Z,68.90
2017-10-06T06:55:35.027Z,68.90
2017-10-06T06:58:01.688Z,68.90
2017-10-06T07:00:28.322Z,68.90
2017-10-06T07:02:54.952Z,68.90
2017-10-06T07:05:21.599Z,68.90
2017-10-06T07:07:48.232Z,68.90
2017-10-06T07:10:15.292Z,68.90
2017-10-06T07:12:42.325Z,69.00
2017-10-06T07:15:09.370Z,69.00
2017-10-06T07:17:36.768Z,69.00
2017-10-06T07:20:03.424Z,68.90
2017-10-06T07:22:30.464Z,68.90
2017-10-06T07:24:57.100Z,69.00
2017-10-06T07:27:23.769Z,69.00
2017-10-06T07:29:51.907Z,69.10
2017-10-06T07:32:19.693Z,69.10
2017-10-06T07:34:46.342Z,69.00
2017-10-06T07:37:13.021Z,69.10
2017-10-06T07:39:40.057Z,69.10
2017-10-06T07:42:07.125Z,69.20
2017-10-06T07:44:33.762Z,69.20
2017-10-06T07:47:00.395Z,69.20
2017-10-06T07:49:27.064Z,69.10
2017-10-06T07:51:53.702Z,69.20
2017-10-06T07:54:20.756Z,69.20
2017-10-06T07:56:47.470Z,69.30
2017-10-06T07:59:14.148Z,69.20
2017-10-06T08:01:40.784Z,69.20
2017-10-06T08:04:07.443Z,69.30
2017-10-06T08:06:34.081Z,69.40
2017-10-06T08:09:01.504Z,69.40
2017-10-06T08:11:28.164Z,69.40
2017-10-06T08:13:54.797Z,69.40
2017-10-06T08:16:22.224Z,69.40
2017-10-06T08:18:48.852Z,69.40
2017-10-06T08:21:15.512Z,69.30
2017-10-06T08:23:42.148Z,69.50
2017-10-06T08:26:08.828Z,69.40
2017-10-06T08:28:35.461Z,69.40
2017-10-06T08:31:02.612Z,69.50
2017-10-06T08:33:29.284Z,69.40
2017-10-06T08:35:55.921Z,69.50
2017-10-06T08:38:22.598Z,69.50
2017-10-06T08:40:49.236Z,69.50
2017-10-06T08:43:15.914Z,69.50
2017-10-06T08:45:42.549Z,69.50
2017-10-06T08:48:09.208Z,69.60
2017-10-06T08:50:36.257Z,69.50
2017-10-06T08:53:02.917Z,69.60
2017-10-06T08:55:29.556Z,69.70
2017-10-06T08:57:56.233Z,69.70
2017-10-06T09:00:22.890Z,69.60
2017-10-06T09:02:49.536Z,69.60
2017-10-06T09:05:16.205Z,69.50
2017-10-06T09:07:43.156Z,69.70
2017-10-06T09:10:09.812Z,69.50
2017-10-06T09:12:36.452Z,69.60
2017-10-06T09:15:03.116Z,69.60
2017-10-06T09:17:29.755Z,69.60
2017-10-06T09:19:56.436Z,69.60
2017-10-06T09:22:23.080Z,69.60
2017-10-06T09:24:49.760Z,69.70
2017-10-06T09:27:16.796Z,69.70
2017-10-06T09:29:43.432Z,69.70
2017-10-06T09:32:10.488Z,69.80
2017-10-06T09:34:37.122Z,69.70
2017-10-06T09:37:03.793Z,69.70
2017-10-06T09:39:30.429Z,69.80
2017-10-06T09:41:57.476Z,69.80
2017-10-06T09:44:24.522Z,69.90
2017-10-06T09:46:51.209Z,69.90
2017-10-06T09:49:17.859Z,69.90
2017-10-06T09:51:44.564Z,69.70
2017-10-06T09:54:11.610Z,69.80
2017-10-06T09:56:38.252Z,69.80
2017-10-06T09:59:04.911Z,69.90
2017-10-06T10:01:31.977Z,69.90
2017-10-06T10:03:58.640Z,69.90
2017-10-06T10:06:25.297Z,69.90
2017-10-06T10:08:51.954Z,69.90
2017-10-06T10:11:18.589Z,69.90
2017-10-06T10:13:45.646Z,70.00
2017-10-06T10:16:12.289Z,70.00
2017-10-06T10:18:38.954Z,70.00
2017-10-06T10:21:06.760Z,70.10
2017-10-06T10:23:33.395Z,70.20
2017-10-06T10:26:00.452Z,70.10
2017-10-06T10:28:27.477Z,70.10
2017-10-06T10:30:54.140Z,70.10
2017-10-06T10:33:20.776Z,70.20
2017-10-06T10:35:47.420Z,70.20
2017-10-06T10:38:14.705Z,70.10
2017-10-06T10:40:41.335Z,70.10
2017-10-06T10:43:08.390Z,70.20
2017-10-06T10:45:35.025Z,70.20
2017-10-06T10:48:02.092Z,70.30
2017-10-06T10:53:17.273Z,70.20
2017-10-06T10:55:44.304Z,70.20
2017-10-06T11:00:39.285Z,70.30
2017-10-06T11:03:05.945Z,70.40
2017-10-06T11:05:33.228Z,70.40
2017-10-06T11:08:00.256Z,70.40
2017-10-06T11:10:27.320Z,70.40
2017-10-06T11:12:54.363Z,70.40
2017-10-06T11:15:21.020Z,70.40
2017-10-06T11:17:47.656Z,70.50
2017-10-06T11:20:14.712Z,70.50
2017-10-06T11:22:41.360Z,70.50
2017-10-06T11:25:08.421Z,70.50
2017-10-06T11:27:35.064Z,70.50
2017-10-06T11:30:01.697Z,70.70
2017-10-06T11:32:28.355Z,70.70
2017-10-06T11:34:55.006Z,71.10
2017-10-06T11:37:21.672Z,70.80
2017-10-06T11:39:48.313Z,70.90
2017-10-06T11:42:14.991Z,71.00
2017-10-06T11:44:41.639Z,71.00
2017-10-06T11:47:08.703Z,71.10
2017-10-06T11:49:36.296Z,70.90
2017-10-06T11:52:02.952Z,71.00
2017-10-06T11:54:29.620Z,70.90
2017-10-06T11:56:56.251Z,70.90
2017-10-06T11:59:23.315Z,70.90
2017-10-06T12:01:49.960Z,70.90
2017-10-06T12:04:16.656Z,71.00
2017-10-06T12:06:43.339Z,71.00
2017-10-06T12:09:10.004Z,71.10
2017-10-06T12:11:36.636Z,71.10
2017-10-06T12:14:03.665Z,71.10
2017-10-06T12:16:30.336Z,71.20
2017-10-06T12:18:56.975Z,71.20
2017-10-06T12:21:30.496Z,71.20
2017-10-06T12:23:57.165Z,71.30
2017-10-06T12:26:24.239Z,71.20
2017-10-06T12:28:51.278Z,71.30
2017-10-06T12:31:18.593Z,71.30
2017-10-06T12:33:45.233Z,71.30
2017-10-06T12:36:12.277Z,71.30
2017-10-06T12:38:38.908Z,71.40
2017-10-06T12:41:05.536Z,71.50
2017-10-06T12:43:32.180Z,71.40
2017-10-06T12:45:58.817Z,71.30
2017-10-06T12:48:25.871Z,71.50
2017-10-06T12:53:41.627Z,71.50
2017-10-06T12:56:08.656Z,71.50
2017-10-06T12:58:35.304Z,71.80
2017-10-06T13:01:01.940Z,71.80
2017-10-06T13:03:29.556Z,71.80
2017-10-06T13:05:56.215Z,71.70
2017-10-06T13:08:22.905Z,71.70
2017-10-06T13:10:49.572Z,71.80
2017-10-06T13:13:16.212Z,71.80
2017-10-06T13:15:42.864Z,71.90
2017-10-06T13:18:09.484Z,72.10
2017-10-06T13:23:25.188Z,72.20
2017-10-06T13:25:52.236Z,72.30
2017-10-06T13:28:19.256Z,72.30
2017-10-06T13:30:45.928Z,72.20
2017-10-06T13:33:12.552Z,72.30
2017-10-06T13:35:39.189Z,72.40
2017-10-06T13:38:05.848Z,72.30
2017-10-06T13:40:32.486Z,72.40
2017-10-06T13:42:59.137Z,72.50
2017-10-06T13:45:25.780Z,72.50
2017-10-06T13:47:52.441Z,72.30
2017-10-06T13:50:19.082Z,72.40
2017-10-06T13:52:45.717Z,72.40
2017-10-06T13:55:12.372Z,72.40
2017-10-06T13:57:39.009Z,72.40
2017-10-06T14:00:05.660Z,72.40
2017-10-06T14:02:32.289Z,72.40
2017-10-06T14:04:58.947Z,72.30
2017-10-06T14:07:25.975Z,72.30
2017-10-06T14:09:52.599Z,72.20
2017-10-06T14:12:19.255Z,72.20
2017-10-06T14:14:45.884Z,72.20
2017-10-06T14:17:12.536Z,72.20
2017-10-06T14:19:39.226Z,72.10
2017-10-06T14:22:05.888Z,72.20
2017-10-06T14:24:32.913Z,72.10
2017-10-06T14:26:59.984Z,72.20
2017-10-06T14:29:26.616Z,72.30
2017-10-06T14:31:53.251Z,72.20
2017-10-06T14:34:19.904Z,72.20
2017-10-06T14:36:46.554Z,72.30
2017-10-06T14:39:13.612Z,72.20
2017-10-06T14:41:40.235Z,72.30
2017-10-06T14:44:06.888Z,72.20
2017-10-06T14:46:33.520Z,72.10
2017-10-06T14:49:00.180Z,72.00
2017-10-06T14:51:34.160Z,71.80
2017-10-06T14:54:01.610Z,71.80
2017-10-06T14:56:28.242Z,71.90
2017-10-06T14:58:54.872Z,71.80
2017-10-06T15:01:21.529Z,71.80
2017-10-06T15:03:48.164Z,71.80
2017-10-06T15:06:15.218Z,71.80
2017-10-06T15:08:41.850Z,71.70
2017-10-06T15:11:08.500Z,71.70
2017-10-06T15:13:35.137Z,71.50
2017-10-06T15:16:01.807Z,71.70
2017-10-06T15:18:28.432Z,71.70
2017-10-06T15:23:44.360Z,71.60
2017-10-06T15:26:10.991Z,71.70
2017-10-06T15:28:37.645Z,71.60
2017-10-06T15:31:04.279Z,71.60
2017-10-06T15:33:30.944Z,71.70
2017-10-06T15:35:57.568Z,71.60
2017-10-06T15:38:24.240Z,71.60
2017-10-06T15:40:50.868Z,71.60
2017-10-06T15:43:17.900Z,71.60
2017-10-06T15:45:44.563Z,71.70
2017-10-06T15:48:11.728Z,71.60
2017-10-06T15:53:28.509Z,71.60
2017-10-06T15:55:56.357Z,71.70
2017-10-06T15:58:22.991Z,71.70
2017-10-06T16:00:49.656Z,71.70
2017-10-06T16:03:16.300Z,71.70
2017-10-06T16:05:42.940Z,71.70
2017-10-06T16:08:09.600Z,71.70
2017-10-06T16:10:36.252Z,71.70
2017-10-06T16:13:03.677Z,71.60
2017-10-06T16:15:30.347Z,71.60
2017-10-06T16:17:57.036Z,71.60
2017-10-06T16:20:24.060Z,71.50
2017-10-06T16:22:51.092Z,71.50
2017-10-06T16:25:17.756Z,71.30
2017-10-06T16:27:44.391Z,71.30
2017-10-06T16:30:11.046Z,71.00
2017-10-06T16:32:37.680Z,71.10
2017-10-06T16:35:04.340Z,71.10
2017-10-06T16:37:30.979Z,71.00
2017-10-06T16:39:57.612Z,71.10
2017-10-06T16:42:24.277Z,71.00
2017-10-06T16:44:50.934Z,70.80
2017-10-06T16:47:17.584Z,71.20
2017-10-06T16:49:44.236Z,71.10
2017-10-06T16:52:10.893Z,70.90
2017-10-06T16:54:37.527Z,70.90
2017-10-06T16:57:04.583Z,70.80
2017-10-06T16:59:31.618Z,71.00
2017-10-06T17:01:58.270Z,70.90
2017-10-06T17:04:25.324Z,70.90
2017-10-06T17:06:52.359Z,70.80
2017-10-06T17:09:19.408Z,70.90
2017-10-06T17:11:46.449Z,70.70
2017-10-06T17:14:13.908Z,70.80
2017-10-06T17:16:40.541Z,70.70
2017-10-06T17:19:07.939Z,70.80
2017-10-06T17:21:34.596Z,70.90
2017-10-06T17:24:01.224Z,70.80
2017-10-06T17:26:28.276Z,70.80
2017-10-06T17:28:54.912Z,70.80
2017-10-06T17:31:21.960Z,70.80
2017-10-06T17:33:48.730Z,70.70
2017-10-06T17:36:15.400Z,70.90
2017-10-06T17:38:42.045Z,70.90
2017-10-06T17:41:08.895Z,70.90
2017-10-06T17:43:35.553Z,70.80
2017-10-06T17:46:02.579Z,70.90
2017-10-06T17:48:29.639Z,70.80
2017-10-06T17:53:45.044Z,71.10
2017-10-06T17:56:12.077Z,71.30
2017-10-06T17:58:38.748Z,71.30
2017-10-06T18:01:06.409Z,71.20
2017-10-06T18:03:33.091Z,71.20
2017-10-06T18:05:59.724Z,71.10
2017-10-06T18:08:26.360Z,71.10
2017-10-06T18:10:53.010Z,71.20
2017-10-06T18:13:20.049Z,71.20
2017-10-06T18:15:46.827Z,71.20
2017-10-06T18:18:13.460Z,71.20
2017-10-06T18:20:40.145Z,71.20
2017-10-06T18:23:06.782Z,71.20
2017-10-06T18:25:33.442Z,71.10
2017-10-06T18:28:00.073Z,71.20
2017-10-06T18:30:27.716Z,71.10
2017-10-06T18:32:54.800Z,71.20
2017-10-06T18:35:21.832Z,71.00
2017-10-06T18:37:48.486Z,71.10
2017-10-06T18:40:15.132Z,71.10
2017-10-06T18:42:42.520Z,71.10
2017-10-06T18:45:09.169Z,71.10
2017-10-06T18:47:35.849Z,71.00
2017-10-06T18:50:02.488Z,70.90
2017-10-06T18:52:29.135Z,71.00
2017-10-06T18:54:56.319Z,71.00
2017-10-06T18:57:22.947Z,71.00
2017-10-06T18:59:49.617Z,71.00
2017-10-06T19:02:16.273Z,71.00
2017-10-06T19:04:42.929Z,71.00
2017-10-06T19:07:09.961Z,71.00
2017-10-06T19:09:37.012Z,71.00
2017-10-06T19:12:03.639Z,71.00
2017-10-06T19:14:30.309Z,70.90
2017-10-06T19:16:56.940Z,71.00
2017-10-06T19:19:23.580Z,71.00
2017-10-06T19:21:50.632Z,71.00
2017-10-06T19:24:17.660Z,71.10
2017-10-06T19:26:44.317Z,71.10
2017-10-06T19:29:11.352Z,71.10
2017-10-06T19:31:38.004Z,71.00
2017-10-06T19:34:05.776Z,71.10
2017-10-06T19:36:33.691Z,70.90
2017-10-06T19:39:01.092Z,71.00
2017-10-06T19:41:27.728Z,71.10
2017-10-06T19:43:54.375Z,71.00
2017-10-06T19:46:21.415Z,71.10
2017-10-06T19:48:48.469Z,71.10
2017-10-06T19:51:15.119Z,71.10
2017-10-06T19:53:42.533Z,71.10
2017-10-06T19:56:09.564Z,71.20
2017-10-06T19:58:36.216Z,71.20
2017-10-06T20:01:02.840Z,71.20
2017-10-06T20:03:29.508Z,71.20
2017-10-06T20:05:56.536Z,71.10
2017-10-06T20:08:23.168Z,71.20
2017-10-06T20:10:49.825Z,71.20
2017-10-06T20:13:16.458Z,71.20
2017-10-06T20:15:43.117Z,71.30
2017-10-06T20:18:09.744Z,71.30
2017-10-06T20:20:36.444Z,71.30
2017-10-06T20:23:03.473Z,71.40
2017-10-06T20:25:30.519Z,71.40
2017-10-06T20:27:57.155Z,71.30
2017-10-06T20:30:23.829Z,71.30
2017-10-06T20:32:50.473Z,71.60
2017-10-06T20:35:17.108Z,71.50
2017-10-06T20:37:43.765Z,71.40
2017-10-06T20:40:10.403Z,71.50
2017-10-06T20:42:37.060Z,71.50
2017-10-06T20:45:03.700Z,71.40
2017-10-06T20:47:30.380Z,71.50
2017-10-06T20:49:58.219Z,71.50
2017-10-06T20:52:24.885Z,71.50
2017-10-06T20:54:52.196Z,71.50
2017-10-06T20:57:18.867Z,71.50
2017-10-06T20:59:45.900Z,71.60
2017-10-06T21:02:12.536Z,71.50
2017-10-06T21:04:39.201Z,71.70
2017-10-06T21:07:05.848Z,71.60
2017-10-06T21:09:32.508Z,71.60
2017-10-06T21:11:59.150Z,71.50
2017-10-06T21:14:26.217Z,71.40
2017-10-06T21:16:52.856Z,71.40
2017-10-06T21:19:19.509Z,71.50
2017-10-06T21:21:47.068Z,71.60
2017-10-06T21:24:14.144Z,71.50
2017-10-06T21:26:40.776Z,71.50
2017-10-06T21:29:07.413Z,71.50
2017-10-06T21:31:34.068Z,71.50
2017-10-06T21:34:00.700Z,71.60
2017-10-06T21:36:27.360Z,71.50
2017-10-06T21:38:54.000Z,71.50
2017-10-06T21:41:20.660Z,71.60
2017-10-06T21:43:47.288Z,71.70
2017-10-06T21:46:13.944Z,71.70
2017-10-06T21:48:41.356Z,71.60
2017-10-06T21:51:08.036Z,71.60
2017-10-06T21:53:35.073Z,71.70
2017-10-06T21:56:01.731Z,71.70
2017-10-06T21:58:28.389Z,71.70
2017-10-06T22:00:55.020Z,71.70
2017-10-06T22:03:22.074Z,71.70
2017-10-06T22:05:48.708Z,71.70
2017-10-06T22:08:16.129Z,71.80
2017-10-06T22:10:42.784Z,71.80
2017-10-06T22:13:09.416Z,71.80
2017-10-06T22:15:36.837Z,71.70
2017-10-06T22:18:03.512Z,71.70
2017-10-06T22:20:30.167Z,71.70
2017-10-06T22:22:56.804Z,71.80
2017-10-06T22:25:23.452Z,71.70
2017-10-06T22:27:50.088Z,71.80
2017-10-06T22:30:16.749Z,71.90
2017-10-06T22:32:43.774Z,71.90
2017-10-06T22:35:10.841Z,71.80
2017-10-06T22:37:37.898Z,71.90
2017-10-06T22:40:04.975Z,71.90
2017-10-06T22:42:31.623Z,71.80
2017-10-06T22:44:58.648Z,71.80
2017-10-06T22:47:25.295Z,71.80
2017-10-06T22:49:51.924Z,71.80
2017-10-06T22:52:18.974Z,71.80
2017-10-06T22:54:45.599Z,71.80
2017-10-06T22:57:12.668Z,71.80
2017-10-06T22:59:39.296Z,71.80
2017-10-06T23:02:06.323Z,71.90
2017-10-06T23:04:32.967Z,71.90
2017-10-06T23:06:59.602Z,71.90
2017-10-06T23:09:26.258Z,71.90
2017-10-06T23:11:53.279Z,71.80
2017-10-06T23:14:20.323Z,71.80
2017-10-06T23:16:47.347Z,71.80
2017-10-06T23:19:14.010Z,71.80
2017-10-06T23:21:42.352Z,71.70
2017-10-06T23:24:09.768Z,71.80
2017-10-06T23:26:36.396Z,71.80
2017-10-06T23:29:03.021Z,71.90
2017-10-06T23:31:29.681Z,71.90
2017-10-06T23:33:56.310Z,71.90
2017-10-06T23:36:22.970Z,71.90
2017-10-06T23:38:49.599Z,71.90
2017-10-06T23:41:16.247Z,71.90
2017-10-06T23:43:43.267Z,71.90
2017-10-06T23:46:09.923Z,71.90
2017-10-06T23:48:36.766Z,71.90
2017-10-06T23:53:51.983Z,71.80
2017-10-06T23:56:19.016Z,71.80
2017-10-06T23:58:45.659Z,71.80
